RJNS(METAR)
05/21 13:00
METAR RJNS 210400Z 19006KT 9999 FEW005 SCT035 BKN100 21/21 Q1000 RMK
1ST005 3CU035 6AC100 A2955=
戻る
トップページへ戻る
IMOC Co,.Ltd.